.
WxDataArchive / Data Records for 2016-02-24
2016-02-23 February 2016 2016-02-25

Data Records for Wednesday, 24 February 2016

Time	Temp	Chill	HIndex	Humid	Dewpt	 Wind 	HiWind	WindDir	Rain 	Barom
-----	----	-----	------	-----	-----	------	------	-------	-----	-----
00:00	33.4	33.4	33.4	70	24.7	2	12	68	0.00	29.871 
00:05	33.4	33.4	33.4	70	24.7	2	12	45	0.00	29.871 
00:10	33.4	33.4	33.4	70	24.7	3	11	22	0.00	29.871 
00:15	33.4	33.4	33.4	71	25.0	3	9	68	0.00	29.864 
00:20	33.4	33.4	33.4	71	25.0	2	7	22	0.00	29.864 
00:25	33.4	33.4	33.4	71	25.0	2	12	90	0.00	29.864 
00:30	33.4	33.4	33.4	71	25.0	2	9	90	0.00	29.860 
00:35	33.4	33.4	33.4	72	25.4	3	9	90	0.00	29.860 
00:40	33.2	33.2	33.2	72	25.2	2	6	22	0.00	29.860 
00:45	33.2	33.2	33.2	72	25.2	2	9	90	0.00	29.852 
00:50	33.2	33.2	33.2	72	25.2	2	9	90	0.00	29.852 
00:55	33.2	33.2	33.2	72	25.2	2	6	112	0.00	29.852 
01:00	33.2	33.2	33.2	72	25.2	2	6	112	0.00	29.842 
01:05	33.2	33.2	33.2	72	25.2	2	6	112	0.00	29.842 
01:10	33.2	33.2	33.2	72	25.2	2	6	45	0.00	29.842 
01:15	33.2	33.2	33.2	72	25.2	2	6	90	0.00	29.835 
01:20	33.2	33.2	33.2	72	25.2	2	5	45	0.00	29.835 
01:25	33.2	33.2	33.2	72	25.2	2	7	90	0.00	29.835 
01:30	33.2	33.2	33.2	72	25.2	2	13	90	0.00	29.823 
01:35	33.2	33.2	33.2	72	25.2	2	11	45	0.00	29.823 
01:40	33.2	33.2	33.2	73	25.5	2	5	90	0.00	29.823 
01:45	33.2	33.2	33.2	73	25.5	2	6	90	0.00	29.818 
01:50	33.2	33.2	33.2	73	25.5	3	10	112	0.00	29.818 
01:55	33.2	33.2	33.2	73	25.5	2	6	90	0.00	29.818 
02:00	33.2	33.2	33.2	73	25.5	1	6	90	0.00	29.808 
02:05	33.2	33.2	33.2	73	25.5	2	5	45	0.00	29.808 
02:10	33.2	33.2	33.2	73	25.5	2	8	22	0.00	29.808 
02:15	33.2	33.2	33.2	73	25.5	2	7	90	0.00	29.794 
02:20	33.2	29.5	33.2	73	25.5	4	12	112	0.00	29.794 
02:25	33.2	33.2	33.2	73	25.5	2	10	45	0.00	29.794 
02:30	33.2	33.2	33.2	73	25.5	2	10	90	0.00	29.788 
02:35	33.1	33.1	33.1	73	25.4	3	11	112	0.00	29.788 
02:40	33.1	33.1	33.1	73	25.4	3	12	22	0.00	29.788 
02:45	33.1	33.1	33.1	73	25.4	3	9	112	0.00	29.759 
02:50	32.9	32.9	32.9	73	25.2	3	9	22	0.00	29.759 
02:55	32.9	29.1	32.9	73	25.2	4	12	112	0.00	29.759 
03:00	32.9	32.9	32.9	73	25.2	3	11	112	0.00	29.745 
03:05	32.8	29.0	32.8	73	25.1	4	14	112	0.00	29.745 
03:10	32.8	32.8	32.8	73	25.1	3	14	90	0.00	29.745 
03:15	32.8	32.8	32.8	73	25.1	2	6	68	0.00	29.741 
03:20	32.8	32.8	32.8	74	25.4	3	15	90	0.00	29.741 
03:25	32.8	32.8	32.8	74	25.4	2	6	22	0.00	29.741 
03:30	32.8	32.8	32.8	75	25.8	3	12	90	0.00	29.728 
03:35	32.7	32.7	32.7	75	25.7	3	8	45	0.00	29.728 
03:40	32.7	32.7	32.7	76	26.0	2	6	90	0.00	29.728 
03:45	32.5	32.5	32.5	77	26.1	1	9	68	0.00	29.719 
03:50	32.5	32.5	32.5	77	26.1	2	5	45	0.00	29.719 
03:55	32.4	32.4	32.4	78	26.3	2	10	68	0.00	29.719 
04:00	32.2	32.2	32.2	79	26.4	2	6	22	0.00	29.711 
04:05	32.1	32.1	32.1	81	26.9	2	7	22	0.00	29.711 
04:10	32.1	32.1	32.1	82	27.2	3	7	22	0.00	29.711 
04:15	31.9	31.9	31.9	82	27.0	3	10	112	0.00	29.699 
04:20	31.9	28.0	31.9	83	27.3	4	16	112	0.00	29.699 
04:25	31.8	27.8	31.8	84	27.5	4	10	135	0.01	29.699 
04:30	31.8	31.8	31.8	85	27.8	3	9	112	0.00	29.682 
04:35	31.8	31.8	31.8	85	27.8	3	9	90	0.00	29.682 
04:40	31.8	31.8	31.8	86	28.1	2	6	45	0.01	29.682 
04:45	31.6	31.6	31.6	86	27.9	3	14	90	0.00	29.662 
04:50	31.6	31.6	31.6	87	28.2	3	10	45	0.01	29.662 
04:55	31.6	31.6	31.6	87	28.2	3	7	90	0.00	29.662 
05:00	31.6	31.6	31.6	87	28.2	2	10	68	0.01	29.651 
05:05	31.6	31.6	31.6	88	28.5	2	6	112	0.00	29.651 
05:10	31.6	31.6	31.6	88	28.5	2	6	112	0.01	29.651 
05:15	31.6	27.6	31.6	88	28.5	4	10	22	0.00	29.638 
05:20	31.6	31.6	31.6	88	28.5	2	6	45	0.01	29.638 
05:25	31.6	31.6	31.6	88	28.5	3	10	135	0.01	29.638 
05:30	31.6	31.6	31.6	89	28.7	2	5	68	0.00	29.621 
05:35	31.6	31.6	31.6	89	28.7	2	6	112	0.00	29.621 
05:40	31.6	31.6	31.6	89	28.7	3	10	112	0.01	29.621 
05:45	31.6	31.6	31.6	89	28.7	2	9	90	0.00	29.604 
05:50	31.6	31.6	31.6	89	28.7	2	5	90	0.01	29.604 
05:55	31.8	31.8	31.8	90	29.2	3	9	45	0.00	29.604 
06:00	31.8	31.8	31.8	90	29.2	2	5	45	0.01	29.590 
06:05	31.8	31.8	31.8	90	29.2	2	5	45	0.00	29.590 
06:10	31.8	31.8	31.8	90	29.2	2	5	68	0.00	29.590 
06:15	31.8	31.8	31.8	90	29.2	3	9	22	0.01	29.584 
06:20	31.9	31.9	31.9	90	29.3	3	7	158	0.00	29.584 
06:25	31.9	31.9	31.9	90	29.3	2	9	68	0.00	29.584 
06:30	31.9	31.9	31.9	90	29.3	3	6	112	0.01	29.573 
06:35	31.9	31.9	31.9	90	29.3	3	9	45	0.01	29.573 
06:40	32.1	32.1	32.1	90	29.5	3	9	22	0.00	29.573 
06:45	32.1	32.1	32.1	90	29.5	3	7	22	0.00	29.560 
06:50	32.2	32.2	32.2	90	29.6	2	7	45	0.00	29.560 
06:55	32.4	32.4	32.4	90	29.8	3	10	158	0.01	29.560 
07:00	32.4	32.4	32.4	90	29.8	3	7	45	0.00	29.555 
07:05	32.5	32.5	32.5	91	30.2	2	7	270	0.01	29.555 
07:10	32.7	32.7	32.7	91	30.4	2	6	158	0.00	29.555 
07:15	32.7	32.7	32.7	91	30.4	2	10	158	0.01	29.553 
07:20	32.8	32.8	32.8	91	30.5	2	5	68	0.00	29.553 
07:25	32.8	32.8	32.8	91	30.5	2	9	68	0.00	29.553 
07:30	32.9	32.9	32.9	91	30.6	3	9	22	0.01	29.541 
07:35	32.9	32.9	32.9	91	30.6	1	4	90	0.00	29.541 
07:40	33.1	33.1	33.1	91	30.8	1	5	90	0.00	29.541 
07:45	33.1	33.1	33.1	91	30.8	3	6	112	0.00	29.534 
07:50	33.1	33.1	33.1	91	30.8	2	4	45	0.01	29.534 
07:55	33.1	33.1	33.1	91	30.8	3	6	45	0.00	29.534 
08:00	33.1	33.1	33.1	91	30.8	2	6	45	0.00	29.514 
08:05	33.2	33.2	33.2	91	30.9	2	5	45	0.01	29.514 
08:10	33.2	33.2	33.2	91	30.9	2	7	112	0.00	29.514 
08:15	33.4	33.4	33.4	91	31.1	3	7	112	0.00	29.524 
08:20	33.4	33.4	33.4	91	31.1	2	6	112	0.00	29.524 
08:25	33.4	33.4	33.4	91	31.1	2	6	45	0.01	29.524 
08:30	33.4	33.4	33.4	91	31.1	2	5	112	0.00	29.505 
08:35	33.4	33.4	33.4	92	31.3	2	11	45	0.00	29.505 
08:40	33.4	33.4	33.4	92	31.3	3	9	112	0.00	29.505 
08:45	33.4	33.4	33.4	92	31.3	2	5	22	0.00	29.483 
08:50	33.4	33.4	33.4	92	31.3	3	9	22	0.01	29.483 
08:55	33.4	33.4	33.4	92	31.3	3	17	112	0.00	29.483 
09:00	33.5	29.8	33.5	92	31.4	4	11	90	0.01	29.470 
09:05	33.5	33.5	33.5	91	31.2	3	9	90	0.00	29.470 
09:10	33.5	33.5	33.5	91	31.2	3	8	45	0.00	29.470 
09:15	33.5	29.8	33.5	91	31.2	4	12	112	0.01	29.468 
09:20	33.5	33.5	33.5	91	31.2	3	8	45	0.01	29.468 
09:25	33.5	33.5	33.5	91	31.2	3	7	68	0.00	29.468 
09:30	33.5	29.8	33.5	91	31.2	4	10	22	0.00	29.442 
09:35	33.5	33.5	33.5	91	31.2	3	6	22	0.01	29.442 
09:40	33.5	33.5	33.5	91	31.2	3	11	112	0.00	29.442 
09:45	33.5	33.5	33.5	91	31.2	3	10	112	0.01	29.426 
09:50	33.5	29.8	33.5	91	31.2	4	10	112	0.01	29.426 
09:55	33.5	29.8	33.5	91	31.2	4	10	22	0.01	29.426 
10:00	33.7	30.0	33.7	91	31.4	4	11	22	0.01	29.400 
10:05	33.7	30.0	33.7	91	31.4	4	14	45	0.01	29.400 
10:10	33.7	33.7	33.7	91	31.4	3	7	68	0.01	29.400 
10:15	33.7	30.0	33.7	91	31.4	4	14	22	0.00	29.406 
10:20	33.7	33.7	33.7	91	31.4	3	10	90	0.01	29.406 
10:25	33.7	33.7	33.7	91	31.4	3	9	112	0.01	29.406 
10:30	33.7	29.1	33.7	91	31.4	5	14	112	0.01	29.416 
10:35	33.7	33.7	33.7	91	31.4	3	11	112	0.00	29.416 
10:40	33.5	33.5	33.5	91	31.2	2	11	68	0.00	29.416 
10:45	33.5	29.8	33.5	91	31.2	4	16	22	0.00	29.390 
10:50	33.5	29.8	33.5	91	31.2	4	12	22	0.01	29.390 
10:55	33.5	33.5	33.5	91	31.2	3	11	112	0.02	29.390 
11:00	33.5	28.8	33.5	91	31.2	5	14	112	0.00	29.390 
11:05	33.5	33.5	33.5	91	31.2	3	7	68	0.01	29.390 
11:10	33.5	29.8	33.5	91	31.2	4	11	45	0.02	29.390 
11:15	33.5	33.5	33.5	91	31.2	3	9	68	0.00	29.369 
11:20	33.5	28.8	33.5	91	31.2	5	16	112	0.01	29.369 
11:25	33.5	33.5	33.5	91	31.2	3	12	112	0.00	29.369 
11:30	33.5	29.8	33.5	91	31.2	4	14	45	0.00	29.367 
11:35	33.5	33.5	33.5	91	31.2	3	12	112	0.01	29.367 
11:40	33.5	29.8	33.5	91	31.2	4	14	112	0.01	29.367 
11:45	33.5	33.5	33.5	91	31.2	3	10	45	0.00	29.366 
11:50	33.5	33.5	33.5	92	31.4	3	11	45	0.01	29.366 
11:55	33.5	33.5	33.5	92	31.4	3	9	112	0.01	29.366 
12:00	33.5	33.5	33.5	92	31.4	3	7	45	0.01	29.357 
12:05	33.5	33.5	33.5	92	31.4	3	9	90	0.01	29.357 
12:10	33.5	29.8	33.5	92	31.4	4	12	90	0.01	29.357 
12:15	33.5	33.5	33.5	92	31.4	3	11	45	0.00	29.343 
12:20	33.5	29.8	33.5	92	31.4	4	10	45	0.01	29.343 
12:25	33.5	33.5	33.5	92	31.4	3	13	45	0.00	29.343 
12:30	33.5	33.5	33.5	92	31.4	2	10	45	0.01	29.338 
12:35	33.5	33.5	33.5	92	31.4	2	7	112	0.00	29.338 
12:40	33.5	33.5	33.5	92	31.4	2	7	112	0.00	29.338 
12:45	33.5	33.5	33.5	92	31.4	3	12	45	0.00	29.321 
12:50	33.7	33.7	33.7	92	31.6	3	7	45	0.01	29.321 
12:55	33.7	33.7	33.7	92	31.6	3	10	22	0.00	29.321 
13:00	33.7	30.0	33.7	92	31.6	4	11	68	0.00	29.317 
13:05	33.7	33.7	33.7	92	31.6	3	7	112	0.01	29.317 
13:10	33.8	33.8	33.8	92	31.7	2	7	45	0.00	29.317 
13:15	33.8	33.8	33.8	92	31.7	1	4	22	0.00	29.310 
13:20	33.8	30.2	33.8	92	31.7	4	12	90	0.01	29.310 
13:25	33.8	33.8	33.8	92	31.7	3	9	68	0.00	29.310 
13:30	33.8	33.8	33.8	92	31.7	2	6	45	0.00	29.300 
13:35	33.8	33.8	33.8	92	31.7	3	7	45	0.01	29.300 
13:40	33.8	33.8	33.8	92	31.7	3	9	45	0.00	29.300 
13:45	33.8	33.8	33.8	92	31.7	2	7	22	0.01	29.294 
13:50	33.8	33.8	33.8	92	31.7	1	4	90	0.01	29.294 
13:55	33.8	33.8	33.8	92	31.7	2	6	22	0.01	29.294 
14:00	33.8	33.8	33.8	92	31.7	3	9	135	0.00	29.282 
14:05	33.8	33.8	33.8	93	32.0	3	9	45	0.01	29.282 
14:10	33.8	33.8	33.8	93	32.0	2	7	45	0.00	29.282 
14:15	33.8	33.8	33.8	93	32.0	1	4	22	0.00	29.280 
14:20	33.8	33.8	33.8	93	32.0	2	5	45	0.00	29.280 
14:25	34.0	34.0	34.0	93	32.2	2	6	68	0.00	29.280 
14:30	34.0	34.0	34.0	93	32.2	2	7	45	0.01	29.279 
14:35	34.0	34.0	34.0	92	31.9	3	8	45	0.00	29.279 
14:40	34.1	34.1	34.1	92	32.0	2	7	90	0.00	29.279 
14:45	34.1	34.1	34.1	92	32.0	3	7	112	0.00	29.270 
14:50	34.1	34.1	34.1	92	32.0	2	10	45	0.00	29.270 
14:55	34.3	34.3	34.3	92	32.2	2	7	90	0.00	29.270 
15:00	34.3	34.3	34.3	92	32.2	2	10	68	0.00	29.264 
15:05	34.3	34.3	34.3	92	32.2	3	6	45	0.01	29.264 
15:10	34.3	34.3	34.3	92	32.2	2	8	112	0.00	29.264 
15:15	34.3	34.3	34.3	92	32.2	1	7	45	0.00	29.268 
15:20	34.3	34.3	34.3	92	32.2	2	5	22	0.00	29.268 
15:25	34.3	34.3	34.3	92	32.2	1	3	68	0.00	29.268 
15:30	34.3	34.3	34.3	92	32.2	1	4	68	0.00	29.270 
15:35	34.3	34.3	34.3	92	32.2	2	9	338	0.00	29.270 
15:40	34.3	34.3	34.3	92	32.2	2	6	338	0.00	29.270 
15:45	34.1	34.1	34.1	92	32.0	1	5	338	0.00	29.262 
15:50	34.1	34.1	34.1	92	32.0	2	6	338	0.01	29.262 
15:55	34.1	34.1	34.1	92	32.0	1	5	338	0.00	29.262 
16:00	34.1	34.1	34.1	92	32.0	1	4	338	0.00	29.258 
16:05	34.1	34.1	34.1	92	32.0	0	3	338	0.00	29.258 
16:10	34.0	34.0	34.0	92	31.9	1	5	338	0.00	29.258 
16:15	34.0	34.0	34.0	92	31.9	0	3	338	0.00	29.268 
16:20	33.8	33.8	33.8	92	31.7	1	3	338	0.00	29.268 
16:25	33.7	33.7	33.7	92	31.6	2	6	338	0.00	29.268 
16:30	33.7	33.7	33.7	92	31.6	1	5	315	0.00	29.264 
16:35	33.5	33.5	33.5	92	31.4	2	6	315	0.00	29.264 
16:40	33.5	33.5	33.5	93	31.7	1	5	315	0.00	29.264 
16:45	33.5	33.5	33.5	93	31.7	1	5	45	0.01	29.275 
16:50	33.5	33.5	33.5	93	31.7	2	6	315	0.00	29.275 
16:55	33.5	33.5	33.5	93	31.7	1	3	0	0.00	29.275 
17:00	33.5	33.5	33.5	93	31.7	1	6	315	0.00	29.275 
17:05	33.5	33.5	33.5	93	31.7	1	4	292	0.00	29.275 
17:10	33.4	33.4	33.4	93	31.6	2	6	270	0.00	29.275 
17:15	33.4	33.4	33.4	93	31.6	2	6	292	0.00	29.282 
17:20	33.2	33.2	33.2	93	31.4	2	5	315	0.00	29.282 
17:25	33.2	33.2	33.2	93	31.4	1	5	315	0.00	29.282 
17:30	33.2	33.2	33.2	93	31.4	2	6	338	0.01	29.289 
17:35	33.2	33.2	33.2	93	31.4	2	4	338	0.00	29.289 
17:40	33.2	33.2	33.2	93	31.4	2	6	0	0.00	29.289 
17:45	33.1	33.1	33.1	93	31.3	1	5	315	0.00	29.297 
17:50	33.1	33.1	33.1	93	31.3	1	5	315	0.00	29.297 
17:55	33.1	33.1	33.1	93	31.3	2	7	292	0.00	29.297 
18:00	32.9	32.9	32.9	93	31.1	1	9	315	0.00	29.298 
18:05	32.9	32.9	32.9	93	31.1	1	6	338	0.00	29.298 
18:10	32.8	32.8	32.8	93	31.0	2	7	338	0.00	29.298 
18:15	32.8	32.8	32.8	93	31.0	2	5	22	0.00	29.299 
18:20	32.7	32.7	32.7	93	30.9	1	4	292	0.00	29.299 
18:25	32.7	32.7	32.7	93	30.9	2	5	315	0.00	29.299 
18:30	32.7	32.7	32.7	93	30.9	1	4	315	0.00	29.303 
18:35	32.7	32.7	32.7	93	30.9	1	4	315	0.00	29.303 
18:40	32.7	32.7	32.7	93	30.9	2	4	315	0.00	29.303 
18:45	32.7	32.7	32.7	93	30.9	2	6	338	0.00	29.309 
18:50	32.5	32.5	32.5	93	30.7	2	5	315	0.00	29.309 
18:55	32.5	32.5	32.5	93	30.7	1	9	292	0.00	29.309 
19:00	32.5	32.5	32.5	93	30.7	2	9	315	0.00	29.314 
19:05	32.5	32.5	32.5	93	30.7	2	6	338	0.00	29.314 
19:10	32.5	32.5	32.5	93	30.7	1	6	0	0.00	29.314 
19:15	32.5	32.5	32.5	93	30.7	1	3	0	0.00	29.325 
19:20	32.5	32.5	32.5	93	30.7	1	5	0	0.00	29.325 
19:25	32.5	32.5	32.5	93	30.7	1	4	338	0.00	29.325 
19:30	32.5	32.5	32.5	93	30.7	1	3	338	0.00	29.330 
19:35	32.4	32.4	32.4	93	30.6	1	4	292	0.00	29.330 
19:40	32.4	32.4	32.4	93	30.6	1	5	338	0.00	29.330 
19:45	32.4	32.4	32.4	93	30.6	1	5	292	0.00	29.341 
19:50	32.4	32.4	32.4	93	30.6	1	5	338	0.00	29.341 
19:55	32.4	32.4	32.4	93	30.6	1	6	0	0.00	29.341 
20:00	32.4	32.4	32.4	93	30.6	2	5	292	0.00	29.345 
20:05	32.4	32.4	32.4	93	30.6	2	5	315	0.00	29.345 
20:10	32.4	32.4	32.4	93	30.6	1	7	338	0.00	29.345 
20:15	32.2	32.2	32.2	93	30.4	1	4	292	0.00	29.348 
20:20	32.2	32.2	32.2	93	30.4	2	5	338	0.00	29.348 
20:25	32.2	32.2	32.2	93	30.4	2	7	338	0.00	29.348 
20:30	32.1	32.1	32.1	93	30.3	2	9	292	0.00	29.350 
20:35	32.1	32.1	32.1	93	30.3	2	4	292	0.00	29.350 
20:40	32.1	32.1	32.1	93	30.3	2	6	338	0.00	29.350 
20:45	32.1	32.1	32.1	93	30.3	1	5	338	0.00	29.359 
20:50	32.1	32.1	32.1	93	30.3	1	3	338	0.00	29.359 
20:55	32.1	32.1	32.1	93	30.3	2	9	315	0.00	29.359 
21:00	32.1	32.1	32.1	93	30.3	1	4	292	0.00	29.362 
21:05	32.1	32.1	32.1	93	30.3	1	4	292	0.00	29.362 
21:10	31.9	31.9	31.9	93	30.1	2	7	338	0.00	29.362 
21:15	31.8	31.8	31.8	93	30.0	2	6	338	0.00	29.363 
21:20	31.6	31.6	31.6	93	29.8	2	5	292	0.00	29.363 
21:25	31.6	31.6	31.6	93	29.8	1	4	338	0.00	29.363 
21:30	31.5	31.5	31.5	92	29.4	2	4	292	0.00	29.372 
21:35	31.5	31.5	31.5	92	29.4	2	5	292	0.00	29.372 
21:40	31.3	31.3	31.3	92	29.3	3	7	338	0.00	29.372 
21:45	31.2	31.2	31.2	92	29.2	2	6	338	0.00	29.377 
21:50	31.0	31.0	31.0	92	29.0	2	5	292	0.00	29.377 
21:55	31.0	31.0	31.0	92	29.0	3	7	292	0.00	29.377 
22:00	31.0	31.0	31.0	91	28.7	2	7	315	0.00	29.387 
22:05	31.0	31.0	31.0	91	28.7	2	6	315	0.00	29.387 
22:10	31.0	26.9	31.0	91	28.7	4	9	292	0.00	29.387 
22:15	30.9	30.9	30.9	90	28.3	2	5	292	0.00	29.386 
22:20	30.9	30.9	30.9	90	28.3	2	7	292	0.00	29.386 
22:25	30.7	30.7	30.7	89	27.8	3	9	315	0.00	29.386 
22:30	30.7	30.7	30.7	89	27.8	2	6	338	0.00	29.394 
22:35	30.7	30.7	30.7	88	27.6	2	5	292	0.00	29.394 
22:40	30.9	30.9	30.9	88	27.8	3	7	338	0.00	29.394 
22:45	30.9	30.9	30.9	87	27.5	2	7	338	0.00	29.405 
22:50	30.9	30.9	30.9	87	27.5	3	14	292	0.00	29.405 
22:55	30.7	30.7	30.7	86	27.0	3	10	315	0.00	29.405 
23:00	30.7	30.7	30.7	85	26.7	2	6	338	0.00	29.409 
23:05	30.7	26.6	30.7	85	26.7	4	12	270	0.00	29.409 
23:10	30.7	26.6	30.7	84	26.4	4	9	0	0.00	29.409 
23:15	30.7	30.7	30.7	84	26.4	3	7	338	0.00	29.417 
23:20	30.7	30.7	30.7	84	26.4	3	9	338	0.00	29.417 
23:25	30.7	26.6	30.7	84	26.4	4	9	315	0.00	29.417 
23:30	30.7	30.7	30.7	84	26.4	3	9	315	0.00	29.424 
23:35	30.9	30.9	30.9	84	26.6	3	7	292	0.00	29.424 
23:40	30.9	30.9	30.9	84	26.6	2	6	292	0.00	29.424 
23:45	30.9	30.9	30.9	84	26.6	2	6	338	0.00	29.429 
23:50	30.9	30.9	30.9	84	26.6	2	6	315	0.00	29.429 
23:55	30.9	30.9	30.9	84	26.6	3	7	338	0.00	29.429 

CoCoRaHS
IN-AL-39
A2 Web Hosting
Creative Commons License
GoDaddy
search engine by freefind advanced

loaded 2018-11-16 23:20:28 • last modified 2010-11-18 10:43:29
Privacy PolicyDisclaimer
• wx.awcolley.com is powered by PmWiki v.2002016 •
• all content (unless otherwise noted) © 2018 A W Colley